createdAt,value
2022-08-23T04:15:03.622Z,18.26
2022-08-23T04:18:09.374Z,18.26
2022-08-23T04:21:16.334Z,17.83
2022-08-23T04:24:20.133Z,17.85
2022-08-23T04:27:22.851Z,17.87
2022-08-23T04:30:25.976Z,17.91
2022-08-23T04:33:31.929Z,17.96
2022-08-23T04:36:37.771Z,18.02
2022-08-23T04:39:59.496Z,18.02
2022-08-23T04:43:03.839Z,18.01
2022-08-23T04:46:07.633Z,18.07
2022-08-23T04:49:11.849Z,18.08
2022-08-23T04:52:19.075Z,18.16
2022-08-23T04:55:22.641Z,18.21
2022-08-23T04:58:26.566Z,18.25
2022-08-23T05:01:48.484Z,18.21
2022-08-23T05:08:29.453Z,18.35
2022-08-23T05:15:17.399Z,18.36
2022-08-23T05:18:21.106Z,18.37
2022-08-23T05:21:26.675Z,18.49
2022-08-23T05:24:32.810Z,18.60
2022-08-23T05:27:36.607Z,18.75
2022-08-23T05:30:40.141Z,18.85
2022-08-23T05:33:51.439Z,18.80
2022-08-23T05:37:15.285Z,18.93
2022-08-23T05:51:54.611Z,19.05
2022-08-23T05:55:18.530Z,19.08
2022-08-23T05:58:45.193Z,19.00
2022-08-23T06:02:28.381Z,19.18
2022-08-23T06:06:00.349Z,19.20
2022-08-23T06:39:51.362Z,20.09
2022-08-23T06:46:16.040Z,20.33
2022-08-23T06:49:19.630Z,20.38
2022-08-23T06:52:22.254Z,20.56
2022-08-23T06:55:25.443Z,20.97
2022-08-23T06:58:28.627Z,21.17
2022-08-23T07:01:47.995Z,21.10
2022-08-23T07:04:54.196Z,21.28
2022-08-23T07:07:58.387Z,21.32
2022-08-23T07:11:03.029Z,21.52
2022-08-23T07:14:10.373Z,21.97
2022-08-23T07:17:14.459Z,22.73
2022-08-23T07:20:20.637Z,22.82
2022-08-23T07:23:23.304Z,22.55
2022-08-23T07:26:27.749Z,22.35
2022-08-23T07:29:34.176Z,22.38
2022-08-23T07:32:37.396Z,22.82
2022-08-23T07:35:53.801Z,22.78
2022-08-23T07:38:57.883Z,22.85
2022-08-23T07:42:15.945Z,23.01
2022-08-23T07:45:25.984Z,23.40
2022-08-23T07:48:52.565Z,24.04
2022-08-23T07:51:58.961Z,24.12
2022-08-23T07:55:02.114Z,24.32
2022-08-23T07:58:05.224Z,23.90
2022-08-23T08:05:00.861Z,25.33
2022-08-23T08:11:49.390Z,24.80
2022-08-23T08:14:53.446Z,24.90
2022-08-23T08:17:57.418Z,24.71
2022-08-23T08:21:01.444Z,23.71
2022-08-23T08:24:05.610Z,24.66
2022-08-23T08:27:12.641Z,25.36
2022-08-23T08:30:15.241Z,26.75
2022-08-23T08:33:18.647Z,27.36
2022-08-23T08:36:37.097Z,27.11
2022-08-23T08:39:49.726Z,26.70
2022-08-23T08:43:17.518Z,26.45
2022-08-23T08:46:31.767Z,25.93
2022-08-23T08:49:47.954Z,25.52
2022-08-23T08:53:12.415Z,25.33
2022-08-23T08:56:25.197Z,24.93
2022-08-23T08:59:42.160Z,25.55
2022-08-23T09:02:45.559Z,26.30
2022-08-23T09:06:02.377Z,27.25
2022-08-23T09:09:20.168Z,27.84
2022-08-23T09:12:41.832Z,28.78
2022-08-23T09:16:08.907Z,27.55
2022-08-23T09:19:14.962Z,26.22
2022-08-23T09:22:40.561Z,26.81
2022-08-23T09:25:53.766Z,25.99
2022-08-23T09:29:13.472Z,25.27
2022-08-23T09:32:26.895Z,24.74
2022-08-23T09:35:39.692Z,24.24
2022-08-23T09:39:05.256Z,24.75
2022-08-23T09:42:27.177Z,25.23
2022-08-23T09:45:35.577Z,25.17
2022-08-23T09:48:46.886Z,25.56
2022-08-23T09:51:54.161Z,26.04
2022-08-23T09:55:02.696Z,26.39
2022-08-23T09:58:18.364Z,27.06
2022-08-23T10:01:22.248Z,28.28
2022-08-23T10:04:29.095Z,28.23
2022-08-23T10:07:42.547Z,26.91
2022-08-23T10:10:52.707Z,26.60
2022-08-23T10:13:56.239Z,25.91
2022-08-23T10:17:04.712Z,25.26
2022-08-23T10:20:35.653Z,25.58
2022-08-23T10:23:51.045Z,25.73
2022-08-23T10:27:27.233Z,26.16
2022-08-23T10:31:07.797Z,26.40
2022-08-23T10:34:11.152Z,26.08
2022-08-23T10:37:47.904Z,25.72
2022-08-23T10:41:20.878Z,25.93
2022-08-23T10:44:43.676Z,25.70
2022-08-23T10:48:12.553Z,25.98
2022-08-23T10:51:32.076Z,26.23
2022-08-23T10:58:15.559Z,26.47
2022-08-23T11:01:44.965Z,25.85
2022-08-23T11:04:51.470Z,25.79
2022-08-23T11:08:09.173Z,26.68
2022-08-23T11:11:40.967Z,27.75
2022-08-23T11:15:03.761Z,27.24
2022-08-23T11:18:13.087Z,27.13
2022-08-23T11:21:19.141Z,26.88
2022-08-23T11:24:32.391Z,26.82
2022-08-23T11:27:42.164Z,26.62
2022-08-23T11:30:50.385Z,27.35
2022-08-23T11:34:04.918Z,27.77
2022-08-23T11:37:23.431Z,28.08
2022-08-23T11:40:39.347Z,28.07
2022-08-23T11:43:45.450Z,28.47
2022-08-23T11:46:55.386Z,29.03
2022-08-23T11:50:25.040Z,28.73
2022-08-23T11:53:52.953Z,28.90
2022-08-23T11:57:00.030Z,29.39
2022-08-23T12:00:13.469Z,29.44
2022-08-23T12:03:34.551Z,29.32
2022-08-23T12:06:50.916Z,28.99
2022-08-23T12:09:56.264Z,29.45
2022-08-23T12:13:24.974Z,29.45
2022-08-23T12:16:33.336Z,29.91
2022-08-23T12:19:48.893Z,29.72
2022-08-23T12:23:16.205Z,30.04
2022-08-23T12:26:49.813Z,29.37
2022-08-23T12:29:57.696Z,29.26
2022-08-23T12:33:16.731Z,29.17
2022-08-23T12:36:58.810Z,28.98
2022-08-23T12:40:08.202Z,29.07
2022-08-23T12:43:22.519Z,29.67
2022-08-23T12:46:35.868Z,29.04
2022-08-23T12:49:39.607Z,28.86
2022-08-23T12:52:42.243Z,27.92
2022-08-23T12:55:50.080Z,28.21
2022-08-23T12:58:58.115Z,27.91
2022-08-23T13:02:05.039Z,27.87
2022-08-23T13:05:22.126Z,27.78
2022-08-23T13:08:41.594Z,27.42
2022-08-23T13:11:46.047Z,27.56
2022-08-23T13:14:54.587Z,27.94
2022-08-23T13:18:01.897Z,28.12
2022-08-23T13:21:23.459Z,28.22
2022-08-23T13:24:39.203Z,28.03
2022-08-23T13:27:44.790Z,27.76
2022-08-23T13:31:02.497Z,27.74
2022-08-23T13:34:09.492Z,27.91
2022-08-23T13:37:24.114Z,27.47
2022-08-23T13:40:33.400Z,26.16
2022-08-23T13:43:44.756Z,26.42
2022-08-23T13:46:48.343Z,26.74
2022-08-23T13:49:52.237Z,26.91
2022-08-23T13:56:18.289Z,26.66
2022-08-23T13:59:31.996Z,26.63
2022-08-23T14:02:34.615Z,26.13
